Terminal Aerodrome Forecast
Issued by NWS

Home | Current Version | Previous Version | Graphics & Text | Print | Product List | Glossary On
Versions: 1 2 3 4 5 6 7 8 9 10 11 12 13 14 15 16 17 18 19 20 21
000
FTUS43 KLOT 251700
TAFORD
TAF
KORD 251734Z 2518/2624 22013G21KT P6SM BKN025
     FM252000 21013G19KT P6SM FEW025 BKN200
     FM260000 19012KT P6SM BKN200
     FM261400 21010G17KT P6SM SCT020 OVC150=

USA.gov is the U.S. government's official web portal to all federal, state and local government web resources and services.